createdAt,value
2023-08-24T00:00:28.787Z,3.47
2023-08-24T00:02:57.036Z,3.10
2023-08-24T00:05:25.099Z,3.17
2023-08-24T00:07:54.277Z,2.70
2023-08-24T00:10:22.099Z,2.90
2023-08-24T00:12:49.913Z,3.20
2023-08-24T00:15:17.770Z,3.60
2023-08-24T00:17:45.631Z,3.40
2023-08-24T00:20:14.631Z,2.87
2023-08-24T00:22:42.652Z,3.00
2023-08-24T00:25:12.582Z,3.13
2023-08-24T00:27:41.532Z,3.53
2023-08-24T00:30:10.315Z,3.50
2023-08-24T00:32:38.548Z,3.40
2023-08-24T00:35:07.979Z,2.93
2023-08-24T00:37:36.983Z,3.03
2023-08-24T00:40:09.713Z,3.40
2023-08-24T00:42:41.391Z,3.13
2023-08-24T00:45:10.485Z,3.47
2023-08-24T00:47:39.781Z,3.20
2023-08-24T00:50:09.119Z,3.47
2023-08-24T00:52:40.312Z,3.73
2023-08-24T00:55:09.436Z,3.57
2023-08-24T00:57:38.865Z,3.73
2023-08-24T01:00:11.175Z,3.90
2023-08-24T01:02:39.464Z,3.87
2023-08-24T01:05:07.708Z,3.70
2023-08-24T01:07:37.254Z,3.87
2023-08-24T01:10:07.390Z,4.03
2023-08-24T01:12:44.262Z,4.00
2023-08-24T01:15:19.456Z,3.27
2023-08-24T01:17:50.033Z,5.00
2023-08-24T01:20:20.470Z,3.87
2023-08-24T01:22:56.361Z,3.57
2023-08-24T01:25:34.713Z,4.03
2023-08-24T01:28:05.592Z,5.43
2023-08-24T01:30:34.798Z,4.20
2023-08-24T01:33:05.493Z,3.60
2023-08-24T01:35:33.919Z,3.47
2023-08-24T01:38:03.843Z,4.00
2023-08-24T01:40:45.742Z,3.90
2023-08-24T01:43:20.088Z,4.63
2023-08-24T01:45:52.126Z,4.53
2023-08-24T01:48:20.108Z,4.10
2023-08-24T01:50:49.296Z,4.13
2023-08-24T01:53:17.206Z,5.60
2023-08-24T01:55:47.203Z,4.20
2023-08-24T01:58:16.810Z,4.70
2023-08-24T02:00:44.827Z,4.10
2023-08-24T02:03:12.852Z,4.13
2023-08-24T02:05:40.823Z,5.20
2023-08-24T02:08:08.651Z,4.87
2023-08-24T02:10:36.497Z,5.67
2023-08-24T02:13:04.699Z,4.93
2023-08-24T02:15:33.928Z,6.00
2023-08-24T02:18:01.798Z,4.60
2023-08-24T02:20:29.733Z,5.00
2023-08-24T02:22:57.606Z,5.37
2023-08-24T02:25:25.466Z,5.47
2023-08-24T02:27:53.303Z,5.43
2023-08-24T02:30:21.385Z,5.03
2023-08-24T02:32:51.864Z,5.00
2023-08-24T02:35:20.294Z,5.50
2023-08-24T02:37:48.478Z,5.77
2023-08-24T02:40:16.780Z,5.93
2023-08-24T02:42:44.638Z,5.30
2023-08-24T02:45:12.511Z,5.87
2023-08-24T02:47:40.475Z,5.10
2023-08-24T02:50:10.928Z,5.07
2023-08-24T02:52:38.836Z,5.73
2023-08-24T02:55:07.665Z,5.60
2023-08-24T02:57:37.290Z,6.00
2023-08-24T03:00:07.921Z,5.97
2023-08-24T03:02:35.933Z,6.23
2023-08-24T03:05:04.071Z,6.10
2023-08-24T03:07:33.311Z,6.43
2023-08-24T03:10:01.139Z,6.10
2023-08-24T03:12:28.974Z,5.80
2023-08-24T03:14:56.800Z,6.53
2023-08-24T03:17:25.628Z,5.80
2023-08-24T03:19:53.489Z,5.90
2023-08-24T03:22:21.378Z,6.30
2023-08-24T03:24:50.610Z,6.03
2023-08-24T03:27:18.442Z,6.57
2023-08-24T03:29:46.263Z,5.83
2023-08-24T03:32:14.109Z,6.03
2023-08-24T03:34:42.267Z,6.00
2023-08-24T03:37:10.064Z,5.93
2023-08-24T03:39:39.555Z,5.97
2023-08-24T03:42:09.365Z,6.30
2023-08-24T03:44:37.232Z,6.87
2023-08-24T03:47:05.508Z,6.67
2023-08-24T03:49:33.350Z,8.10
2023-08-24T03:52:01.164Z,6.97
2023-08-24T03:54:29.245Z,6.93
2023-08-24T03:56:57.188Z,6.60
2023-08-24T03:59:26.373Z,6.73
2023-08-24T04:01:54.177Z,6.53
2023-08-24T04:04:22.027Z,8.20
2023-08-24T04:06:50.824Z,7.20
2023-08-24T04:09:18.649Z,6.27
2023-08-24T04:11:46.718Z,8.10
2023-08-24T04:14:14.901Z,7.00
2023-08-24T04:16:44.093Z,7.10
2023-08-24T04:19:11.908Z,7.10
2023-08-24T04:21:39.741Z,7.37
2023-08-24T04:24:08.164Z,7.40
2023-08-24T04:26:36.103Z,6.47
2023-08-24T04:29:04.057Z,7.20
2023-08-24T04:31:31.881Z,5.80
2023-08-24T04:34:01.054Z,7.80
2023-08-24T04:36:28.969Z,6.70
2023-08-24T04:38:56.787Z,7.50
2023-08-24T04:41:24.649Z,7.40
2023-08-24T04:43:52.470Z,6.60
2023-08-24T04:46:20.334Z,6.20
2023-08-24T04:48:48.219Z,7.20
2023-08-24T04:51:18.090Z,6.73
2023-08-24T04:53:45.915Z,7.63
2023-08-24T04:56:13.761Z,7.53
2023-08-24T04:58:41.638Z,7.47
2023-08-24T05:01:09.536Z,6.43
2023-08-24T05:03:37.419Z,7.40
2023-08-24T05:06:05.532Z,6.73
2023-08-24T05:08:35.182Z,7.70
2023-08-24T05:11:04.340Z,7.60
2023-08-24T05:13:32.136Z,8.33
2023-08-24T05:15:59.960Z,7.70
2023-08-24T05:18:27.833Z,7.40
2023-08-24T05:20:55.676Z,7.07
2023-08-24T05:23:23.662Z,7.87
2023-08-24T05:25:52.887Z,6.90
2023-08-24T05:28:20.710Z,7.63
2023-08-24T05:30:48.690Z,7.03
2023-08-24T05:33:16.519Z,7.23
2023-08-24T05:35:44.640Z,7.00
2023-08-24T05:38:12.530Z,7.30
2023-08-24T05:40:40.774Z,7.77
2023-08-24T05:43:10.626Z,7.90
2023-08-24T05:45:40.621Z,7.07
2023-08-24T05:48:08.836Z,6.90
2023-08-24T05:50:38.645Z,8.60
2023-08-24T05:53:06.580Z,8.13
2023-08-24T05:55:34.430Z,7.93
2023-08-24T05:58:02.249Z,8.33
2023-08-24T06:00:31.424Z,9.02
2023-08-24T06:02:59.353Z,8.30
2023-08-24T06:05:27.668Z,8.07
2023-08-24T06:07:55.758Z,8.33
2023-08-24T06:10:23.736Z,8.23
2023-08-24T06:12:51.638Z,8.33
2023-08-24T06:15:20.436Z,7.13
2023-08-24T06:17:51.167Z,7.83
2023-08-24T06:20:19.765Z,7.30
2023-08-24T06:22:47.715Z,7.67
2023-08-24T06:25:15.636Z,7.10
2023-08-24T06:27:43.566Z,7.37
2023-08-24T06:30:12.369Z,7.53
2023-08-24T06:32:40.748Z,7.27
2023-08-24T06:35:10.513Z,7.07
2023-08-24T06:37:38.341Z,7.53
2023-08-24T06:40:07.235Z,6.60
2023-08-24T06:42:35.076Z,7.63
2023-08-24T06:45:02.972Z,8.23
2023-08-24T06:47:30.820Z,6.63
2023-08-24T06:49:58.776Z,7.13
2023-08-24T06:52:27.971Z,7.27
2023-08-24T06:54:57.317Z,7.03
2023-08-24T06:57:25.213Z,7.57
2023-08-24T06:59:53.462Z,6.83
2023-08-24T07:02:21.323Z,7.53
2023-08-24T07:04:49.258Z,6.43
2023-08-24T07:07:17.130Z,7.10
2023-08-24T07:09:46.319Z,8.17
2023-08-24T07:12:14.229Z,6.80
2023-08-24T07:14:42.039Z,6.03
2023-08-24T07:17:11.011Z,6.53
2023-08-24T07:19:38.870Z,6.80
2023-08-24T07:22:06.725Z,8.13
2023-08-24T07:24:44.760Z,5.70
2023-08-24T07:27:15.363Z,6.60
2023-08-24T07:29:43.227Z,7.50
2023-08-24T07:32:11.200Z,7.10
2023-08-24T07:34:39.150Z,7.13
2023-08-24T07:37:06.993Z,6.72
2023-08-24T07:39:35.080Z,7.80
2023-08-24T07:42:02.908Z,7.20
2023-08-24T07:44:32.203Z,6.77
2023-08-24T07:47:00.048Z,8.90
2023-08-24T07:49:27.887Z,8.60
2023-08-24T07:51:56.728Z,9.67
2023-08-24T07:54:24.563Z,8.30
2023-08-24T07:56:52.381Z,8.30
2023-08-24T07:59:20.228Z,9.67
2023-08-24T08:01:49.445Z,8.93
2023-08-24T08:04:17.357Z,8.70
2023-08-24T08:06:45.181Z,7.83
2023-08-24T08:09:13.968Z,7.53
2023-08-24T08:11:41.789Z,8.40
2023-08-24T08:14:09.626Z,6.43
2023-08-24T08:16:37.620Z,7.40
2023-08-24T08:19:07.961Z,7.77
2023-08-24T08:21:35.871Z,7.90
2023-08-24T08:24:03.772Z,7.17
2023-08-24T08:26:31.695Z,7.13
2023-08-24T08:28:59.803Z,6.43
2023-08-24T08:31:27.781Z,7.93
2023-08-24T08:33:58.053Z,5.90
2023-08-24T08:36:27.771Z,5.73
2023-08-24T08:38:55.638Z,6.10
2023-08-24T08:41:27.976Z,6.90
2023-08-24T08:43:56.569Z,6.30
2023-08-24T08:46:24.887Z,6.37
2023-08-24T08:48:54.437Z,6.33
2023-08-24T08:51:22.457Z,7.20
2023-08-24T08:53:51.693Z,7.20
2023-08-24T08:56:19.752Z,7.83
2023-08-24T08:58:48.520Z,7.10
2023-08-24T09:01:17.170Z,8.00
2023-08-24T09:03:45.907Z,7.20
2023-08-24T09:06:13.844Z,7.00
2023-08-24T09:08:41.828Z,6.30
2023-08-24T09:11:11.201Z,7.13
2023-08-24T09:13:39.105Z,6.45
2023-08-24T09:16:09.924Z,6.60
2023-08-24T09:18:39.576Z,6.30
2023-08-24T09:21:11.379Z,5.70
2023-08-24T09:23:40.426Z,5.83
2023-08-24T09:26:08.321Z,5.73
2023-08-24T09:28:40.109Z,6.40
2023-08-24T09:31:08.103Z,5.70
2023-08-24T09:33:37.881Z,6.07
2023-08-24T09:36:08.873Z,5.67
2023-08-24T09:38:37.528Z,6.60
2023-08-24T09:41:05.395Z,5.50
2023-08-24T09:43:33.858Z,7.50
2023-08-24T09:46:04.286Z,6.67
2023-08-24T09:48:33.096Z,6.30
2023-08-24T09:51:06.541Z,5.70
2023-08-24T09:53:39.044Z,6.40
2023-08-24T09:56:08.229Z,6.10
2023-08-24T09:58:36.864Z,6.23
2023-08-24T10:01:07.378Z,5.60
2023-08-24T10:03:38.449Z,6.30
2023-08-24T10:06:09.357Z,5.40
2023-08-24T10:08:39.153Z,5.90
2023-08-24T10:11:09.328Z,5.47
2023-08-24T10:13:43.062Z,6.70
2023-08-24T10:16:15.502Z,6.07
2023-08-24T10:18:43.709Z,6.03
2023-08-24T10:21:11.898Z,5.37
2023-08-24T10:23:41.072Z,5.80
2023-08-24T10:26:10.392Z,5.90
2023-08-24T10:28:39.164Z,5.30
2023-08-24T10:31:07.430Z,5.83
2023-08-24T10:33:37.428Z,5.83
2023-08-24T10:36:07.688Z,6.97
2023-08-24T10:38:41.837Z,4.90
2023-08-24T10:41:09.787Z,5.30
2023-08-24T10:43:38.929Z,5.80
2023-08-24T10:46:14.010Z,5.80
2023-08-24T10:49:02.106Z,5.23
2023-08-24T10:51:31.335Z,6.70
2023-08-24T10:54:00.699Z,6.17
2023-08-24T10:56:38.206Z,5.47
2023-08-24T10:59:17.351Z,5.80
2023-08-24T11:01:57.029Z,5.20
2023-08-24T11:04:26.649Z,6.40
2023-08-24T11:06:56.390Z,5.20
2023-08-24T11:09:25.674Z,4.23
2023-08-24T11:12:02.194Z,4.67
2023-08-24T11:14:31.977Z,4.87
2023-08-24T11:17:01.300Z,4.70
2023-08-24T11:19:31.620Z,4.70
2023-08-24T11:22:00.263Z,4.23
2023-08-24T11:24:28.280Z,4.50
2023-08-24T11:26:56.281Z,5.37
2023-08-24T11:29:24.087Z,4.17
2023-08-24T11:31:54.022Z,4.30
2023-08-24T11:34:21.922Z,3.93
2023-08-24T11:36:51.875Z,4.30
2023-08-24T11:39:21.619Z,3.83
2023-08-24T11:42:00.260Z,4.00
2023-08-24T11:44:29.786Z,3.70
2023-08-24T11:46:59.742Z,3.67
2023-08-24T11:49:27.960Z,3.83
2023-08-24T11:51:57.637Z,3.60
2023-08-24T11:54:25.609Z,3.90
2023-08-24T11:56:53.957Z,4.07
2023-08-24T11:59:22.716Z,4.13
2023-08-24T12:01:51.064Z,3.50
2023-08-24T12:04:19.004Z,3.20
2023-08-24T12:06:46.988Z,3.97
2023-08-24T12:09:17.241Z,3.53
2023-08-24T12:11:45.217Z,3.80
2023-08-24T12:14:19.730Z,3.87
2023-08-24T12:16:47.913Z,4.60
2023-08-24T12:19:15.770Z,3.67
2023-08-24T12:21:45.916Z,4.00
2023-08-24T12:24:17.624Z,3.63
2023-08-24T12:26:45.447Z,4.10
2023-08-24T12:29:13.377Z,4.20
2023-08-24T12:31:45.479Z,4.10
2023-08-24T12:34:17.014Z,3.93
2023-08-24T12:36:44.917Z,3.80
2023-08-24T12:39:14.814Z,3.70
2023-08-24T12:41:44.010Z,3.30
2023-08-24T12:44:13.743Z,3.30
2023-08-24T12:46:43.604Z,3.97
2023-08-24T12:49:11.584Z,4.00
2023-08-24T12:51:40.516Z,3.80
2023-08-24T12:54:09.780Z,4.10
2023-08-24T12:56:40.608Z,4.20
2023-08-24T12:59:10.070Z,3.70
2023-08-24T13:01:38.095Z,4.03
2023-08-24T13:04:06.414Z,3.30
2023-08-24T13:06:35.338Z,3.57
2023-08-24T13:09:04.509Z,3.20
2023-08-24T13:11:32.387Z,3.50
2023-08-24T13:14:00.245Z,3.20
2023-08-24T13:16:29.817Z,3.00
2023-08-24T13:18:57.738Z,3.20
2023-08-24T13:21:27.684Z,3.50
2023-08-24T13:23:55.627Z,3.90
2023-08-24T13:26:24.532Z,3.40
2023-08-24T13:28:53.201Z,3.20
2023-08-24T13:31:21.179Z,3.60
2023-08-24T13:33:51.670Z,2.90
2023-08-24T13:36:19.493Z,3.70
2023-08-24T13:38:48.372Z,3.67
2023-08-24T13:41:16.242Z,3.67
2023-08-24T13:43:44.127Z,3.30
2023-08-24T13:46:12.390Z,3.70
2023-08-24T13:48:40.433Z,2.97
2023-08-24T13:51:10.321Z,3.90
2023-08-24T13:53:38.206Z,3.60
2023-08-24T13:56:06.776Z,3.00
2023-08-24T13:58:34.721Z,4.30
2023-08-24T14:01:04.199Z,3.60
2023-08-24T14:03:32.447Z,3.70
2023-08-24T14:06:00.761Z,3.37
2023-08-24T14:08:30.030Z,3.10
2023-08-24T14:10:57.862Z,3.47
2023-08-24T14:13:26.141Z,3.23
2023-08-24T14:15:54.131Z,3.70
2023-08-24T14:18:22.138Z,4.00
2023-08-24T14:20:50.271Z,3.60
2023-08-24T14:23:18.155Z,3.13
2023-08-24T14:25:50.589Z,3.57
2023-08-24T14:28:23.448Z,3.10
2023-08-24T14:30:51.606Z,3.40
2023-08-24T14:33:19.682Z,3.30
2023-08-24T14:35:54.212Z,3.80
2023-08-24T14:38:22.103Z,3.30
2023-08-24T14:40:51.281Z,3.57
2023-08-24T14:43:19.133Z,3.70
2023-08-24T14:45:47.108Z,3.60
2023-08-24T14:48:15.601Z,3.23
2023-08-24T14:50:43.572Z,3.93
2023-08-24T14:53:11.418Z,3.33
2023-08-24T14:55:40.100Z,3.93
2023-08-24T14:58:09.673Z,3.63
2023-08-24T15:00:37.743Z,3.73
2023-08-24T15:03:06.074Z,3.23
2023-08-24T15:05:40.165Z,3.43
2023-08-24T15:08:08.036Z,2.90
2023-08-24T15:10:36.085Z,4.23
2023-08-24T15:13:04.008Z,4.20
2023-08-24T15:15:33.746Z,4.10
2023-08-24T15:18:01.687Z,3.63
2023-08-24T15:20:29.596Z,3.13
2023-08-24T15:22:57.521Z,3.20
2023-08-24T15:25:25.390Z,3.60
2023-08-24T15:27:53.577Z,3.23
2023-08-24T15:30:22.217Z,3.23
2023-08-24T15:32:51.401Z,3.67
2023-08-24T15:35:19.488Z,3.40
2023-08-24T15:37:47.368Z,3.60
2023-08-24T15:40:15.532Z,3.10
2023-08-24T15:42:43.443Z,3.50
2023-08-24T15:45:11.702Z,3.43
2023-08-24T15:47:39.600Z,3.73
2023-08-24T15:50:09.682Z,4.10
2023-08-24T15:52:37.565Z,3.37
2023-08-24T15:55:05.959Z,3.10
2023-08-24T15:57:33.801Z,3.13
2023-08-24T16:00:02.055Z,3.27
2023-08-24T16:02:30.112Z,2.93
2023-08-24T16:04:58.072Z,3.70
2023-08-24T16:07:27.283Z,2.80
2023-08-24T16:09:55.107Z,3.30
2023-08-24T16:12:22.972Z,3.47
2023-08-24T16:14:50.907Z,3.23
2023-08-24T16:17:18.736Z,3.50
2023-08-24T16:19:46.775Z,3.50
2023-08-24T16:22:14.685Z,4.00
2023-08-24T16:24:43.832Z,3.30
2023-08-24T16:27:11.705Z,3.97
2023-08-24T16:29:39.618Z,3.90
2023-08-24T16:32:07.882Z,3.43
2023-08-24T16:34:35.684Z,3.37
2023-08-24T16:37:03.837Z,3.30
2023-08-24T16:39:31.974Z,3.27
2023-08-24T16:42:01.144Z,3.30
2023-08-24T16:44:28.956Z,3.50
2023-08-24T16:46:56.940Z,4.10
2023-08-24T16:49:24.814Z,3.00
2023-08-24T16:51:52.726Z,3.33
2023-08-24T16:54:20.578Z,2.70
2023-08-24T16:56:48.396Z,3.20
2023-08-24T16:59:17.639Z,3.97
2023-08-24T17:01:45.540Z,3.70
2023-08-24T17:04:13.663Z,4.40
2023-08-24T17:06:41.552Z,3.83
2023-08-24T17:09:09.474Z,3.67
2023-08-24T17:11:37.367Z,3.50
2023-08-24T17:14:05.259Z,4.30
2023-08-24T17:16:34.477Z,4.00
2023-08-24T17:19:03.140Z,4.37
2023-08-24T17:21:31.094Z,3.80
2023-08-24T17:23:58.933Z,3.97
2023-08-24T17:26:26.765Z,3.90
2023-08-24T17:28:54.630Z,4.57
2023-08-24T17:31:23.265Z,4.10
2023-08-24T17:33:52.510Z,3.73
2023-08-24T17:36:20.384Z,4.60
2023-08-24T17:38:59.353Z,4.07
2023-08-24T17:41:34.933Z,4.43
2023-08-24T17:44:02.771Z,3.87
2023-08-24T17:46:30.666Z,4.50
2023-08-24T17:48:59.868Z,4.07
2023-08-24T17:51:29.976Z,3.67
2023-08-24T17:53:59.481Z,4.50
2023-08-24T17:56:27.857Z,3.90
2023-08-24T17:58:55.693Z,4.00
2023-08-24T18:01:23.566Z,4.17
2023-08-24T18:03:52.135Z,4.50
2023-08-24T18:06:21.432Z,5.00
2023-08-24T18:08:51.805Z,4.17
2023-08-24T18:11:22.515Z,3.93
2023-08-24T18:13:50.381Z,4.50
2023-08-24T18:16:18.298Z,4.20
2023-08-24T18:18:46.342Z,4.43
2023-08-24T18:21:14.367Z,4.37
2023-08-24T18:23:43.596Z,4.40
2023-08-24T18:26:11.640Z,4.43
2023-08-24T18:28:40.083Z,4.70
2023-08-24T18:31:07.960Z,4.23
2023-08-24T18:33:35.805Z,5.07
2023-08-24T18:36:03.664Z,4.23
2023-08-24T18:38:31.507Z,4.43
2023-08-24T18:41:01.915Z,4.33
2023-08-24T18:43:30.094Z,4.57
2023-08-24T18:46:00.030Z,4.80
2023-08-24T18:48:28.211Z,4.93
2023-08-24T18:50:56.218Z,4.33
2023-08-24T18:53:24.173Z,4.60
2023-08-24T18:55:55.146Z,4.93
2023-08-24T18:58:24.647Z,5.50
2023-08-24T19:00:54.660Z,5.30
2023-08-24T19:03:22.505Z,4.57
2023-08-24T19:05:50.409Z,4.90
2023-08-24T19:08:18.634Z,4.50
2023-08-24T19:10:46.548Z,5.43
2023-08-24T19:13:14.440Z,4.60
2023-08-24T19:15:43.871Z,4.47
2023-08-24T19:18:12.509Z,5.10
2023-08-24T19:20:43.126Z,5.13
2023-08-24T19:23:11.332Z,4.87
2023-08-24T19:25:39.159Z,5.77
2023-08-24T19:28:07.135Z,4.90
2023-08-24T19:30:38.684Z,5.03
2023-08-24T19:33:08.354Z,5.57
2023-08-24T19:35:36.596Z,5.17
2023-08-24T19:38:04.645Z,5.70
2023-08-24T19:40:32.618Z,6.03
2023-08-24T19:43:00.466Z,5.30
2023-08-24T19:45:28.353Z,4.83
2023-08-24T19:47:56.527Z,5.60
2023-08-24T19:50:25.914Z,5.43
2023-08-24T19:52:53.868Z,6.63
2023-08-24T19:55:21.704Z,5.27
2023-08-24T19:57:49.904Z,6.07
2023-08-24T20:00:18.153Z,5.40
2023-08-24T20:02:46.525Z,7.10
2023-08-24T20:05:14.595Z,6.60
2023-08-24T20:07:48.527Z,7.10
2023-08-24T20:10:18.757Z,6.80
2023-08-24T20:12:47.842Z,6.87
2023-08-24T20:15:15.951Z,5.70
2023-08-24T20:17:45.002Z,5.80
2023-08-24T20:20:18.232Z,6.03
2023-08-24T20:22:48.138Z,6.23
2023-08-24T20:25:17.580Z,6.47
2023-08-24T20:27:45.438Z,6.30
2023-08-24T20:30:13.825Z,6.17
2023-08-24T20:32:41.786Z,5.93
2023-08-24T20:35:10.076Z,6.80
2023-08-24T20:37:37.951Z,6.20
2023-08-24T20:40:09.347Z,6.60
2023-08-24T20:42:37.236Z,6.37
2023-08-24T20:45:06.089Z,6.93
2023-08-24T20:47:33.976Z,6.57
2023-08-24T20:50:01.844Z,6.67
2023-08-24T20:52:29.734Z,7.00
2023-08-24T20:54:57.651Z,7.30
2023-08-24T20:57:28.350Z,6.27
2023-08-24T20:59:56.157Z,6.67
2023-08-24T21:02:25.079Z,7.10
2023-08-24T21:04:55.677Z,6.30
2023-08-24T21:07:25.542Z,7.10
2023-08-24T21:09:53.437Z,6.17
2023-08-24T21:12:21.348Z,5.90
2023-08-24T21:14:50.578Z,5.70
2023-08-24T21:17:18.550Z,6.60
2023-08-24T21:19:46.447Z,6.67
2023-08-24T21:22:14.313Z,7.33
2023-08-24T21:24:42.277Z,6.80
2023-08-24T21:27:10.184Z,9.17
2023-08-24T21:29:40.824Z,7.10
2023-08-24T21:32:10.040Z,8.07
2023-08-24T21:34:38.021Z,7.93
2023-08-24T21:37:05.959Z,8.20
2023-08-24T21:39:34.800Z,7.20
2023-08-24T21:42:02.894Z,7.40
2023-08-24T21:44:30.762Z,7.40
2023-08-24T21:46:58.613Z,7.20
2023-08-24T21:49:27.870Z,6.72
2023-08-24T21:51:55.698Z,7.03
2023-08-24T21:54:23.626Z,6.97
2023-08-24T21:56:51.452Z,7.80
2023-08-24T21:59:19.302Z,7.20
2023-08-24T22:01:47.241Z,7.37
2023-08-24T22:04:17.441Z,6.13
2023-08-24T22:06:46.673Z,7.37
2023-08-24T22:09:14.545Z,7.73
2023-08-24T22:11:41.497Z,7.27
2023-08-24T22:14:09.407Z,7.20
2023-08-24T22:16:37.266Z,6.37
2023-08-24T22:19:10.614Z,6.43
2023-08-24T22:21:42.011Z,6.57
2023-08-24T22:24:11.220Z,8.00
2023-08-24T22:26:39.741Z,5.90
2023-08-24T22:29:07.891Z,6.13
2023-08-24T22:31:36.055Z,6.30
2023-08-24T22:34:04.372Z,6.87
2023-08-24T22:36:32.212Z,7.00
2023-08-24T22:39:01.128Z,7.33
2023-08-24T22:41:30.353Z,6.50
2023-08-24T22:43:58.206Z,6.53
2023-08-24T22:46:26.085Z,6.10
2023-08-24T22:48:54.223Z,6.57
2023-08-24T22:51:22.056Z,6.43
2023-08-24T22:53:49.932Z,7.10
2023-08-24T22:56:17.746Z,7.00
2023-08-24T22:58:47.099Z,6.40
2023-08-24T23:01:18.697Z,6.67
2023-08-24T23:03:46.595Z,7.17
2023-08-24T23:06:15.504Z,7.03
2023-08-24T23:08:43.708Z,6.80
2023-08-24T23:11:11.733Z,7.23
2023-08-24T23:13:39.679Z,6.70
2023-08-24T23:16:09.044Z,6.57
2023-08-24T23:18:37.400Z,6.33
2023-08-24T23:21:06.345Z,7.43
2023-08-24T23:23:34.153Z,6.67
2023-08-24T23:26:02.026Z,6.30
2023-08-24T23:28:29.853Z,6.10
2023-08-24T23:30:57.685Z,6.07
2023-08-24T23:33:26.873Z,6.90
2023-08-24T23:35:54.800Z,6.90
2023-08-24T23:38:22.620Z,7.37
2023-08-24T23:40:50.509Z,6.40
2023-08-24T23:43:18.358Z,6.53
2023-08-24T23:45:51.326Z,6.00
2023-08-24T23:48:19.575Z,7.10
2023-08-24T23:50:49.062Z,7.53
2023-08-24T23:53:16.957Z,7.47
2023-08-24T23:55:45.013Z,6.20
2023-08-24T23:58:13.067Z,6.63
